Mims, Florida
Current Conditions -  °F | °C
As of 5:58 PM on Saturday 25 Oct 2014 (Local Time) from KTTS Reporting Station
Clear Clear  
Wind Chill: 74°   Ceiling: Unl
Heat Index: 74°   Visibility: 10mi
Dew Point: 60°   Wind: 7mph
Humidity: 61%   Direction: 20°NNE
Pressure: 29.94"   Gusts: NA
Location:  28.66°N, 80.85°W
Report Text: KTTS 252158Z AUTO 02006KT 10SM CLR 23/15 A2994 RMK AO2 SLP142 T02340154 VISNO RWY33 CHINO RWY33
Loading
Personal Weather Stations






























Interactive Weather Map
Tropical Storm Tracking
New forecast layout! Learn more

10-Day Weather Forecast

Advertisements
Track Severe Weather on mobile